Time;durP1;ratioP1;P1;durP2;ratioP2;P2;SDS_P1;SDS_P2;PMS_P1;PMS_P2;Temp;Humidity;BMP_temperature;BMP_pressure;BME280_temperature;BME280_humidity;BME280_pressure;Samples;Min_cycle;Max_cycle;Signal;HPM_P1;HPM_P2
2021/12/20 00:02:09;;;;;;;11.30;8.07;;;7.50;79.30;7.50;96969.00;;;;5066498;28;20206;-89
2021/12/20 00:04:36;;;;;;;10.87;7.87;;;7.50;79.20;7.40;96973.00;;;;5064520;28;20207;-88
2021/12/20 00:07:04;;;;;;;13.07;8.17;;;7.90;79.50;7.50;96974.00;;;;5065303;28;20204;-87
2021/12/20 00:09:32;;;;;;;10.63;7.47;;;7.50;79.40;7.50;96971.00;;;;5051875;28;20536;-88
2021/12/20 00:11:59;;;;;;;11.40;8.10;;;7.50;79.30;7.50;96956.00;;;;5058464;28;20192;-88
2021/12/20 00:14:26;;;;;;;10.50;7.93;;;7.50;79.40;7.50;96960.00;;;;5059061;28;20212;-88
2021/12/20 00:16:53;;;;;;;11.30;7.77;;;7.50;79.30;7.50;96955.00;;;;5064764;28;20203;-87
2021/12/20 00:19:21;;;;;;;10.13;7.17;;;7.60;79.20;7.50;96959.00;;;;5057376;28;20329;-88
2021/12/20 00:21:48;;;;;;;11.30;8.73;;;7.40;79.00;7.50;96956.00;;;;5051686;28;20607;-88
2021/12/20 00:24:15;;;;;;;10.13;7.83;;;7.80;79.20;7.40;96962.00;;;;5058049;28;20243;-88
2021/12/20 00:26:43;;;;;;;9.10;7.00;;;7.50;79.20;7.40;96956.00;;;;5067066;28;20198;-86
2021/12/20 00:29:11;;;;;;;11.60;7.67;;;7.50;79.20;7.40;96965.00;;;;5071451;28;20202;-88
2021/12/20 00:31:38;;;;;;;11.67;8.03;;;7.50;79.20;7.40;96961.00;;;;5072150;28;20198;-87
2021/12/20 00:34:05;;;;;;;10.43;7.50;;;8.40;79.70;7.40;96947.00;;;;5068733;28;20599;-88
2021/12/20 00:36:32;;;;;;;9.50;7.67;;;7.50;79.30;7.40;96944.00;;;;5091395;28;20209;-86
2021/12/20 00:41:45;;;;;;;11.03;8.03;;;7.50;79.40;7.40;96951.00;;;;5051024;28;20215;-88
2021/12/20 00:44:12;;;;;;;13.10;7.90;;;7.40;79.40;7.40;96946.00;;;;5068780;28;20648;-86
2021/12/20 00:46:39;;;;;;;9.83;7.57;;;7.40;79.20;7.40;96933.00;;;;5074535;28;20549;-88
2021/12/20 00:49:06;;;;;;;9.17;7.00;;;7.40;79.20;7.40;96927.00;;;;5062466;28;20287;-87
2021/12/20 00:51:33;;;;;;;10.30;7.30;;;7.40;79.20;7.40;96941.00;;;;5063515;28;20192;-87
2021/12/20 00:54:00;;;;;;;10.13;7.77;;;7.40;79.20;7.40;96942.00;;;;5073026;28;20725;-86
2021/12/20 00:56:27;;;;;;;12.60;8.23;;;7.40;79.20;7.40;96933.00;;;;5061463;28;20276;-86
2021/12/20 00:58:56;;;;;;;10.60;7.80;;;7.50;79.30;7.40;96946.00;;;;5064138;28;20598;-88
2021/12/20 01:01:23;;;;;;;9.97;7.33;;;7.40;79.30;7.40;96935.00;;;;5056119;28;20685;-86
2021/12/20 01:03:50;;;;;;;10.07;7.77;;;7.60;79.40;7.40;96928.00;;;;5059149;28;20224;-86
2021/12/20 01:06:17;;;;;;;10.30;7.40;;;9.10;80.30;7.40;96925.00;;;;5067010;28;20188;-87
2021/12/20 01:08:45;;;;;;;11.60;8.00;;;8.30;80.00;7.40;96930.00;;;;5082663;28;20243;-88
2021/12/20 01:11:19;;;;;;;11.20;7.60;;;8.30;79.90;7.30;96933.00;;;;5071165;28;20196;-87
2021/12/20 01:13:46;;;;;;;9.97;7.73;;;7.40;79.90;7.30;96946.00;;;;5067771;28;20242;-87
2021/12/20 01:16:15;;;;;;;9.50;7.63;;;7.40;79.30;7.30;96931.00;;;;5069611;28;20226;-88
2021/12/20 01:18:43;;;;;;;12.63;8.07;;;7.40;79.30;7.30;96941.00;;;;5064926;28;20223;-87
2021/12/20 01:21:10;;;;;;;12.37;7.40;;;7.30;79.30;7.30;96943.00;;;;5074830;28;20650;-88
2021/12/20 01:23:39;;;;;;;9.10;7.30;;;7.30;79.30;7.30;96940.00;;;;5063488;28;20219;-88
2021/12/20 01:26:06;;;;;;;9.67;7.37;;;7.30;79.30;7.30;96945.00;;;;5071428;28;20858;-87
2021/12/20 01:28:33;;;;;;;9.33;7.40;;;8.40;80.80;7.30;96942.00;;;;5066212;28;20203;-87
2021/12/20 01:31:01;;;;;;;10.20;7.47;;;7.90;79.70;7.30;96930.00;;;;5055265;28;20193;-87
2021/12/20 01:33:29;;;;;;;12.57;7.80;;;8.60;80.30;7.30;96932.00;;;;5068680;28;20585;-85
2021/12/20 01:35:58;;;;;;;8.43;6.53;;;7.30;79.50;7.30;96936.00;;;;5065747;28;20203;-88
2021/12/20 01:38:25;;;;;;;10.63;7.80;;;7.30;79.50;7.30;96942.00;;;;5069459;28;20599;-86
2021/12/20 01:40:53;;;;;;;12.47;7.87;;;8.30;80.30;7.30;96944.00;;;;5071544;28;20192;-86
2021/12/20 01:43:20;;;;;;;12.20;8.40;;;7.30;79.70;7.30;96944.00;;;;5057466;28;20217;-87
2021/12/20 01:45:49;;;;;;;10.90;7.50;;;7.30;79.80;7.30;96940.00;;;;5055231;28;20204;-88
2021/12/20 01:48:20;;;;;;;11.30;7.70;;;7.30;79.70;7.30;96940.00;;;;5062478;28;20196;-87
2021/12/20 01:53:35;;;;;;;10.93;7.83;;;7.40;79.80;7.30;96945.00;;;;5067997;28;20219;-88
2021/12/20 01:56:04;;;;;;;11.73;7.40;;;7.30;79.80;7.40;96941.00;;;;5062620;28;20720;-87
2021/12/20 01:58:33;;;;;;;10.50;7.80;;;7.30;79.90;7.40;96943.00;;;;5058260;28;20221;-86
2021/12/20 02:01:03;;;;;;;9.60;7.20;;;7.40;80.00;7.40;96944.00;;;;5058746;28;20200;-88
2021/12/20 02:03:32;;;;;;;11.10;7.77;;;7.40;79.90;7.40;96949.00;;;;5058516;28;20216;-87
2021/12/20 02:06:05;;;;;;;14.53;7.97;;;7.40;80.00;7.40;96947.00;;;;5065769;28;20568;-87
2021/12/20 02:08:32;;;;;;;11.87;8.00;;;7.40;80.00;7.40;96946.00;;;;5055654;28;20201;-86
2021/12/20 02:11:05;;;;;;;11.57;7.63;;;7.40;80.00;7.50;96947.00;;;;5061097;28;20199;-87
2021/12/20 02:13:34;;;;;;;11.40;7.47;;;7.40;80.00;7.50;96943.00;;;;5053616;28;20219;-87
2021/12/20 02:16:01;;;;;;;10.53;8.00;;;7.40;80.10;7.50;96942.00;;;;5059474;28;20201;-87
2021/12/20 02:18:31;;;;;;;12.03;7.67;;;7.50;80.20;7.50;96943.00;;;;5067035;28;20219;-87
2021/12/20 02:21:00;;;;;;;11.20;8.50;;;7.50;80.10;7.60;96936.00;;;;5061272;28;20204;-87
2021/12/20 02:23:28;;;;;;;14.03;7.93;;;7.50;80.00;7.60;96929.00;;;;5060121;28;20566;-87
2021/12/20 02:25:55;;;;;;;11.77;8.37;;;7.50;80.00;7.60;96921.00;;;;5052162;28;20204;-87
2021/12/20 02:28:24;;;;;;;12.07;8.57;;;7.50;80.00;7.60;96919.00;;;;5065098;28;20192;-88
2021/12/20 02:36:55;;;;;;;12.30;8.00;;;7.60;80.10;7.70;96925.00;;;;5062457;28;20188;-87
2021/12/20 02:39:16;;;;;;;10.97;7.93;;;7.60;80.10;7.70;96928.00;;;;5057039;28;20585;-87
2021/12/20 02:41:44;;;;;;;12.00;8.40;;;7.60;80.10;7.70;96929.00;;;;5080591;28;20206;-88
2021/12/20 02:44:17;;;;;;;11.77;8.57;;;7.80;80.30;7.80;96931.00;;;;5066243;28;20219;-88
2021/12/20 02:46:51;;;;;;;11.67;8.30;;;7.70;80.10;7.80;96923.00;;;;5062561;28;20750;-88
2021/12/20 02:49:21;;;;;;;12.80;8.20;;;7.70;80.10;7.80;96928.00;;;;5058513;28;20205;-88
2021/12/20 02:51:52;;;;;;;10.53;8.07;;;8.10;80.20;7.80;96935.00;;;;5064954;28;20760;-89
2021/12/20 02:54:23;;;;;;;12.90;8.53;;;7.70;80.00;7.80;96925.00;;;;5085178;22;20223;-84
2021/12/20 02:56:52;;;;;;;13.30;8.30;;;7.80;80.10;7.90;96932.00;;;;5062250;28;20303;-84
2021/12/20 02:59:20;;;;;;;10.17;8.03;;;7.80;80.10;7.90;96922.00;;;;5052032;28;20217;-84
2021/12/20 03:01:51;;;;;;;12.60;8.27;;;7.80;80.00;7.90;96927.00;;;;5056086;28;20203;-84
2021/12/20 03:04:19;;;;;;;10.90;7.70;;;7.80;79.90;7.90;96926.00;;;;5044209;28;20201;-84
2021/12/20 03:06:53;;;;;;;11.73;8.07;;;7.80;80.00;7.90;96933.00;;;;5053634;28;20212;-82
2021/12/20 03:09:27;;;;;;;11.57;7.83;;;7.80;80.00;8.00;96931.00;;;;5041643;28;20738;-82
2021/12/20 03:11:58;;;;;;;12.43;8.27;;;7.90;80.00;8.00;96934.00;;;;5059077;28;20208;-82
2021/12/20 03:14:30;;;;;;;10.07;8.10;;;7.90;79.90;8.00;96925.00;;;;5060095;28;20196;-83
2021/12/20 03:16:58;;;;;;;11.67;8.27;;;7.90;79.90;8.00;96922.00;;;;5057428;28;20219;-82
2021/12/20 03:19:25;;;;;;;12.27;8.53;;;7.90;79.90;8.00;96918.00;;;;5058136;28;20217;-82
2021/12/20 03:21:54;;;;;;;11.93;8.53;;;7.90;79.70;8.00;96922.00;;;;5057149;28;20192;-83
2021/12/20 03:24:22;;;;;;;13.63;9.03;;;7.90;79.80;8.00;96925.00;;;;5058004;28;20196;-82
2021/12/20 03:26:49;;;;;;;12.93;8.30;;;7.90;79.60;8.00;96918.00;;;;5056642;28;20698;-82
2021/12/20 03:29:16;;;;;;;16.77;9.60;;;7.90;79.50;8.00;96923.00;;;;5056355;28;20535;-83
2021/12/20 03:31:45;;;;;;;13.07;8.90;;;7.90;79.40;8.00;96921.00;;;;5059380;28;20193;-83
2021/12/20 03:34:13;;;;;;;13.63;9.07;;;7.90;79.50;8.00;96926.00;;;;5069812;28;20654;-83
2021/12/20 03:36:40;;;;;;;13.43;9.37;;;7.90;79.40;8.00;96920.00;;;;5055431;28;20662;-83
2021/12/20 03:39:11;;;;;;;13.87;8.93;;;7.90;79.30;7.90;96925.00;;;;5055806;28;20329;-83
2021/12/20 03:41:38;;;;;;;12.67;9.20;;;7.90;79.30;7.90;96920.00;;;;5057204;28;20204;-81
2021/12/20 03:44:07;;;;;;;11.93;8.47;;;7.90;79.30;7.90;96925.00;;;;5051444;28;20208;-83
2021/12/20 03:46:36;;;;;;;12.23;8.23;;;7.90;79.20;7.90;96921.00;;;;5059019;28;20284;-84
2021/12/20 03:49:05;;;;;;;10.70;8.53;;;7.90;79.30;7.90;96918.00;;;;5060314;28;20654;-83
2021/12/20 03:51:32;;;;;;;15.17;8.60;;;7.90;79.40;7.90;96935.00;;;;5062134;28;20196;-81
2021/12/20 03:53:59;;;;;;;11.13;8.30;;;7.90;79.60;8.00;96931.00;;;;5052265;28;20193;-83
2021/12/20 03:56:28;;;;;;;13.83;8.10;;;7.90;79.60;8.00;96923.00;;;;5062324;28;20252;-81
2021/12/20 03:58:55;;;;;;;14.23;9.03;;;7.90;79.60;8.00;96927.00;;;;5061608;28;20199;-84
2021/12/20 04:01:22;;;;;;;12.87;9.13;;;7.90;79.40;8.00;96927.00;;;;5044145;28;20207;-82
2021/12/20 04:03:50;;;;;;;12.20;8.07;;;7.90;79.50;7.90;96924.00;;;;5060827;28;20195;-82
2021/12/20 04:06:18;;;;;;;13.90;8.27;;;7.90;79.50;8.00;96925.00;;;;5049498;28;20215;-82
2021/12/20 04:08:46;;;;;;;13.03;8.63;;;7.90;80.10;8.00;96922.00;;;;5059203;28;20216;-82
2021/12/20 04:11:13;;;;;;;12.00;8.40;;;7.90;79.40;8.00;96923.00;;;;5059567;28;20196;-82
2021/12/20 04:13:41;;;;;;;11.37;8.13;;;7.90;79.50;8.00;96928.00;;;;5059005;28;20197;-83
2021/12/20 04:16:08;;;;;;;13.23;8.57;;;7.90;79.50;8.00;96927.00;;;;5056749;28;20193;-82
2021/12/20 04:18:36;;;;;;;12.63;8.53;;;8.00;79.60;8.00;96923.00;;;;5057537;28;20215;-84
2021/12/20 04:21:04;;;;;;;13.53;8.77;;;8.00;79.50;8.00;96934.00;;;;5056607;28;20217;-82
2021/12/20 04:23:31;;;;;;;12.30;8.60;;;8.00;79.50;8.00;96931.00;;;;5055743;28;20203;-83
2021/12/20 04:25:58;;;;;;;14.27;8.90;;;8.00;79.50;8.10;96936.00;;;;5055769;28;20203;-83
2021/12/20 04:28:25;;;;;;;12.90;9.00;;;8.00;79.50;8.10;96935.00;;;;5056012;28;20224;-82
2021/12/20 04:30:53;;;;;;;14.37;8.57;;;8.00;79.60;8.10;96937.00;;;;5041965;28;20669;-82
2021/12/20 04:33:21;;;;;;;13.40;8.40;;;8.00;79.60;8.10;96940.00;;;;5067674;28;20210;-83
2021/12/20 04:35:49;;;;;;;12.87;8.57;;;8.00;79.50;8.10;96939.00;;;;5065019;28;20197;-83
2021/12/20 04:38:17;;;;;;;12.60;8.57;;;8.00;79.50;8.10;96945.00;;;;5053856;28;20708;-83
2021/12/20 04:40:44;;;;;;;13.23;8.83;;;8.00;79.50;8.10;96951.00;;;;5054487;28;20311;-83
2021/12/20 04:43:11;;;;;;;13.70;9.30;;;8.00;79.40;8.10;96953.00;;;;5044742;28;20208;-83
2021/12/20 04:45:38;;;;;;;12.73;8.87;;;8.00;80.00;8.10;96957.00;;;;5050729;28;20208;-82
2021/12/20 04:48:07;;;;;;;11.47;7.90;;;8.10;79.30;8.10;96967.00;;;;5043367;28;20227;-83
2021/12/20 04:50:35;;;;;;;13.33;9.07;;;8.00;79.30;8.10;96961.00;;;;5053184;28;20249;-83
2021/12/20 04:53:02;;;;;;;14.73;9.20;;;8.10;79.40;8.10;96961.00;;;;5049752;28;20701;-83
2021/12/20 04:55:31;;;;;;;14.10;8.20;;;8.10;79.40;8.10;96962.00;;;;5043298;28;20201;-83
2021/12/20 04:58:01;;;;;;;16.23;9.67;;;8.10;79.40;8.10;96963.00;;;;5056332;28;20722;-82
2021/12/20 05:00:33;;;;;;;14.10;9.30;;;8.10;79.40;8.10;96957.00;;;;5058469;28;20592;-81
2021/12/20 05:03:01;;;;;;;13.73;8.87;;;8.20;79.60;8.10;96959.00;;;;5063004;28;20404;-81
2021/12/20 05:05:30;;;;;;;13.40;8.73;;;8.10;79.30;8.20;96953.00;;;;5046108;28;20196;-82
2021/12/20 05:07:57;;;;;;;12.80;8.67;;;8.10;79.30;8.20;96956.00;;;;5057575;28;20581;-83
2021/12/20 05:10:26;;;;;;;14.10;9.10;;;8.10;79.30;8.20;96958.00;;;;5057122;28;20202;-82
2021/12/20 05:12:56;;;;;;;12.93;9.03;;;8.10;79.30;8.20;96955.00;;;;5056855;28;20251;-83
2021/12/20 05:15:24;;;;;;;11.13;8.00;;;8.10;79.30;8.20;96952.00;;;;5057079;28;20226;-83
2021/12/20 05:17:52;;;;;;;13.10;9.00;;;8.10;79.30;8.20;96952.00;;;;5064859;28;20280;-81
2021/12/20 05:20:19;;;;;;;13.27;8.77;;;8.20;79.30;8.20;96949.00;;;;5066709;28;20804;-82
2021/12/20 05:22:48;;;;;;;12.77;8.90;;;8.20;79.30;8.20;96946.00;;;;5066312;28;20225;-81
2021/12/20 05:25:17;;;;;;;26.47;8.40;;;8.20;79.30;8.20;96962.00;;;;5065587;28;20199;-82
2021/12/20 05:27:45;;;;;;;14.43;8.77;;;8.20;79.20;8.20;96961.00;;;;5066131;28;20220;-82
2021/12/20 05:30:14;;;;;;;18.20;10.03;;;8.20;79.20;8.20;96951.00;;;;5057982;28;20203;-82
2021/12/20 05:32:43;;;;;;;13.53;8.63;;;8.20;79.00;8.20;96953.00;;;;5063555;28;20204;-83
2021/12/20 05:35:13;;;;;;;12.70;8.53;;;8.30;79.00;8.20;96962.00;;;;5054060;28;20193;-82
2021/12/20 05:37:40;;;;;;;14.30;9.13;;;8.20;78.80;8.20;96959.00;;;;5063824;28;20219;-81
2021/12/20 05:40:12;;;;;;;11.97;8.60;;;8.20;79.00;8.20;96960.00;;;;5058380;28;20414;-82
2021/12/20 05:42:40;;;;;;;11.80;8.63;;;8.20;79.00;8.10;96960.00;;;;5042352;28;20208;-82
2021/12/20 05:45:09;;;;;;;13.83;8.67;;;8.20;79.10;8.10;96961.00;;;;5052358;28;20193;-81
2021/12/20 05:47:37;;;;;;;13.60;8.97;;;8.10;78.90;8.10;96973.00;;;;5062077;28;20242;-82
2021/12/20 05:50:05;;;;;;;13.53;8.90;;;8.10;78.90;8.10;96975.00;;;;5062710;28;20718;-84
2021/12/20 05:52:32;;;;;;;12.93;8.93;;;8.10;78.90;8.10;96990.00;;;;5063100;28;20552;-81
2021/12/20 05:54:59;;;;;;;11.70;8.10;;;8.10;78.90;8.10;96981.00;;;;5056427;28;20225;-81
2021/12/20 05:57:28;;;;;;;14.33;9.23;;;8.20;79.10;8.10;96980.00;;;;5061935;28;20691;-82
2021/12/20 05:59:55;;;;;;;13.13;9.10;;;8.10;79.10;8.10;96986.00;;;;5060622;28;20212;-82
2021/12/20 06:02:22;;;;;;;13.37;8.40;;;8.10;79.10;8.10;96997.00;;;;5052982;28;20197;-81
2021/12/20 06:04:50;;;;;;;14.10;9.13;;;8.10;79.00;8.20;97002.00;;;;5058650;28;20193;-81
2021/12/20 06:07:19;;;;;;;14.40;9.10;;;8.10;79.00;8.20;97002.00;;;;5062499;28;20276;-83
2021/12/20 06:09:46;;;;;;;15.70;9.33;;;8.10;79.10;8.20;97010.00;;;;5065295;28;20204;-81
2021/12/20 06:12:13;;;;;;;15.00;9.20;;;8.10;79.10;8.20;96991.00;;;;5063773;28;20196;-81
2021/12/20 06:14:42;;;;;;;13.60;9.23;;;8.20;79.20;8.20;97001.00;;;;5062946;28;20204;-83
2021/12/20 06:17:09;;;;;;;15.60;8.60;;;8.20;79.30;8.30;97005.00;;;;5056266;28;20222;-83
2021/12/20 06:19:36;;;;;;;14.40;9.20;;;8.20;79.20;8.20;97010.00;;;;5050626;28;20194;-82
2021/12/20 06:22:04;;;;;;;15.23;8.83;;;8.20;79.30;8.30;97006.00;;;;5045458;28;20201;-81
2021/12/20 06:24:31;;;;;;;13.13;8.90;;;8.20;79.10;8.30;97000.00;;;;5055068;28;20197;-83
2021/12/20 06:26:59;;;;;;;14.73;8.97;;;8.20;79.20;8.30;96996.00;;;;5056904;28;20236;-83
2021/12/20 06:29:26;;;;;;;14.30;8.97;;;8.20;79.20;8.30;97006.00;;;;5055625;28;20196;-82
2021/12/20 06:31:55;;;;;;;13.93;8.97;;;8.20;79.20;8.30;97012.00;;;;5058871;28;20199;-83
2021/12/20 06:34:22;;;;;;;14.33;9.43;;;8.20;79.10;8.30;97013.00;;;;5053549;28;20201;-83
2021/12/20 06:36:49;;;;;;;13.37;8.53;;;8.30;79.10;8.40;97015.00;;;;5048647;28;20213;-83
2021/12/20 06:39:17;;;;;;;15.83;8.80;;;8.30;79.30;8.40;97014.00;;;;5055164;28;20199;-82
2021/12/20 06:41:44;;;;;;;13.10;8.90;;;8.30;79.20;8.40;97021.00;;;;5048444;28;20267;-82
2021/12/20 06:44:11;;;;;;;13.67;9.17;;;8.30;79.20;8.40;97028.00;;;;5044886;28;20201;-83
2021/12/20 06:46:41;;;;;;;14.50;9.13;;;8.30;79.10;8.40;97031.00;;;;5047699;28;20212;-82
2021/12/20 06:49:11;;;;;;;14.60;8.97;;;8.30;79.10;8.40;97026.00;;;;5054187;28;20904;-83
2021/12/20 06:51:41;;;;;;;14.03;9.30;;;8.30;79.00;8.40;97032.00;;;;5052492;28;20204;-82
2021/12/20 06:54:08;;;;;;;12.83;8.50;;;8.30;79.00;8.40;97036.00;;;;5048615;28;20194;-82
2021/12/20 06:56:35;;;;;;;13.30;8.67;;;8.30;79.00;8.40;97034.00;;;;5053073;28;20189;-84
2021/12/20 06:59:03;;;;;;;14.70;9.00;;;8.30;79.00;8.40;97033.00;;;;5042501;28;20201;-83
2021/12/20 07:01:31;;;;;;;14.80;9.27;;;8.30;78.80;8.40;97025.00;;;;5044978;28;20213;-83
2021/12/20 07:04:01;;;;;;;13.37;9.20;;;8.30;78.80;8.40;97034.00;;;;5054617;28;20662;-82
2021/12/20 07:06:29;;;;;;;15.80;9.53;;;8.30;78.70;8.40;97033.00;;;;5052275;28;20193;-83
2021/12/20 07:08:56;;;;;;;13.27;8.57;;;8.40;78.80;8.40;97040.00;;;;5041179;28;20212;-83
2021/12/20 07:11:23;;;;;;;15.13;8.87;;;8.40;78.80;8.40;97052.00;;;;5054043;28;20214;-84
2021/12/20 07:13:53;;;;;;;15.17;8.70;;;8.20;78.70;8.40;97044.00;;;;5052561;28;20650;-83
2021/12/20 07:16:21;;;;;;;17.93;8.93;;;8.40;78.90;8.40;97048.00;;;;5045661;28;20675;-83
2021/12/20 07:18:48;;;;;;;13.93;9.63;;;8.40;78.90;8.50;97048.00;;;;5062545;28;20223;-84
2021/12/20 07:21:15;;;;;;;13.20;9.10;;;8.40;79.60;8.50;97048.00;;;;5037744;28;20217;-81
2021/12/20 07:23:44;;;;;;;14.13;9.03;;;8.30;78.90;8.60;97050.00;;;;5048887;28;20189;-82
2021/12/20 07:26:13;;;;;;;13.03;9.07;;;8.40;79.00;8.60;97049.00;;;;5063495;28;20198;-83
2021/12/20 07:28:42;;;;;;;13.97;8.63;;;8.40;79.10;8.60;97051.00;;;;5059032;28;20220;-83
2021/12/20 07:31:09;;;;;;;18.50;8.90;;;8.40;79.00;8.70;97042.00;;;;5050603;28;20201;-82
2021/12/20 07:33:36;;;;;;;20.60;9.00;;;8.40;79.00;8.70;97050.00;;;;5047333;28;20197;-82
2021/12/20 07:36:03;;;;;;;14.57;9.43;;;8.40;79.10;8.70;97044.00;;;;5061597;28;20546;-81
2021/12/20 07:38:30;;;;;;;17.10;9.97;;;8.50;79.20;8.70;97044.00;;;;5054852;28;20244;-82
2021/12/20 07:40:59;;;;;;;14.43;9.27;;;8.50;79.00;8.80;97044.00;;;;5053171;28;20220;-81
2021/12/20 07:43:26;;;;;;;13.13;9.07;;;8.50;79.00;8.80;97056.00;;;;5050005;28;20578;-82
2021/12/20 07:45:53;;;;;;;22.57;9.70;;;8.50;78.90;8.80;97054.00;;;;5050354;28;20197;-82
2021/12/20 07:48:22;;;;;;;13.33;9.27;;;8.50;78.90;8.80;97059.00;;;;5052241;28;20213;-82
2021/12/20 07:50:51;;;;;;;20.00;10.43;;;8.50;79.00;8.80;97054.00;;;;5050668;28;20200;-83
2021/12/20 07:53:18;;;;;;;15.57;9.60;;;8.60;78.90;8.90;97055.00;;;;5058422;28;20227;-82
2021/12/20 07:55:45;;;;;;;14.27;10.00;;;8.60;78.90;8.90;97060.00;;;;5038885;28;20206;-82
2021/12/20 07:58:14;;;;;;;13.83;9.53;;;8.60;79.50;8.90;97052.00;;;;5049797;28;20716;-81
2021/12/20 08:00:41;;;;;;;15.77;9.40;;;8.60;78.70;8.90;97045.00;;;;5039289;28;20209;-82
2021/12/20 08:03:09;;;;;;;13.23;9.53;;;8.60;78.70;8.90;97042.00;;;;5052517;28;20201;-82
2021/12/20 08:05:36;;;;;;;19.17;9.93;;;8.60;78.70;8.90;97053.00;;;;5050310;28;20228;-82
2021/12/20 08:08:03;;;;;;;14.40;10.07;;;8.60;78.70;8.90;97052.00;;;;5054728;28;20220;-82
2021/12/20 08:10:30;;;;;;;16.17;10.17;;;8.70;78.70;9.00;97053.00;;;;5043686;28;20576;-82
2021/12/20 08:12:57;;;;;;;15.63;10.13;;;8.70;78.70;9.00;97054.00;;;;5053018;28;20211;-81
2021/12/20 08:15:26;;;;;;;16.03;9.87;;;8.70;78.70;9.00;97061.00;;;;5055327;28;20195;-82
2021/12/20 08:17:56;;;;;;;18.23;9.83;;;8.70;78.80;9.00;97055.00;;;;5038348;28;20713;-82
2021/12/20 08:20:24;;;;;;;15.77;9.70;;;8.70;78.70;9.00;97070.00;;;;5053096;28;20216;-82
2021/12/20 08:22:52;;;;;;;19.83;10.20;;;8.80;78.70;9.00;97067.00;;;;5055522;28;20196;-82
2021/12/20 08:25:19;;;;;;;13.60;9.50;;;8.80;78.70;9.10;97064.00;;;;5055261;28;20241;-82
2021/12/20 08:27:48;;;;;;;14.93;10.37;;;8.70;78.60;9.10;97074.00;;;;5060558;28;20232;-82
2021/12/20 08:30:15;;;;;;;15.60;10.10;;;8.80;78.70;9.10;97078.00;;;;5047550;28;20208;-81
2021/12/20 08:32:44;;;;;;;14.30;9.50;;;8.80;78.80;9.10;97077.00;;;;5063466;28;20193;-82
2021/12/20 08:35:13;;;;;;;13.70;9.20;;;8.80;78.80;9.10;97076.00;;;;5064213;28;20195;-82
2021/12/20 08:37:41;;;;;;;12.60;8.97;;;8.80;78.70;9.20;97085.00;;;;5064686;28;20220;-83
2021/12/20 08:40:15;;;;;;;15.93;9.93;;;8.80;78.80;9.20;97072.00;;;;5066990;28;20192;-82
2021/12/20 08:42:44;;;;;;;13.93;9.70;;;8.90;78.80;9.30;97069.00;;;;5060852;28;20262;-83
2021/12/20 08:45:14;;;;;;;13.93;9.23;;;8.90;78.90;9.30;97081.00;;;;5061519;28;20199;-83
2021/12/20 08:47:42;;;;;;;14.63;9.03;;;9.00;78.90;9.40;97080.00;;;;5061817;28;20697;-82
2021/12/20 08:50:15;;;;;;;13.97;9.03;;;9.00;79.40;9.40;97078.00;;;;5056131;28;20195;-81
2021/12/20 08:52:42;;;;;;;17.10;9.53;;;9.00;78.80;9.40;97074.00;;;;5055716;28;20189;-82
2021/12/20 08:55:11;;;;;;;15.07;9.00;;;9.00;78.60;9.40;97069.00;;;;5056839;28;20201;-83
2021/12/20 08:57:39;;;;;;;13.83;9.33;;;9.10;78.50;9.40;97072.00;;;;5057725;28;20224;-82
2021/12/20 09:00:11;;;;;;;14.30;8.47;;;9.10;79.20;9.50;97074.00;;;;5060146;28;20189;-82
2021/12/20 09:02:38;;;;;;;12.10;8.30;;;9.10;78.50;9.50;97079.00;;;;5054500;28;20204;-81
2021/12/20 09:05:08;;;;;;;12.43;8.43;;;9.20;79.30;9.50;97088.00;;;;5064191;28;20194;-82
2021/12/20 09:07:36;;;;;;;13.50;9.43;;;9.20;78.60;9.50;97081.00;;;;5059612;28;20220;-82
2021/12/20 09:10:05;;;;;;;13.63;9.20;;;9.20;78.50;9.50;97090.00;;;;5053251;28;20565;-83
2021/12/20 09:12:32;;;;;;;12.77;8.23;;;9.20;78.40;9.50;97097.00;;;;5064154;28;20197;-81
2021/12/20 09:14:59;;;;;;;14.43;9.10;;;9.20;78.40;9.60;97106.00;;;;5060215;28;20193;-82
2021/12/20 09:17:26;;;;;;;13.57;8.90;;;9.20;78.20;9.60;97102.00;;;;5059670;28;20236;-83
2021/12/20 09:19:53;;;;;;;11.80;8.53;;;9.30;78.20;9.60;97093.00;;;;5044709;28;20216;-81
2021/12/20 09:22:26;;;;;;;12.47;8.37;;;9.30;78.20;9.70;97103.00;;;;5055710;28;20217;-81
2021/12/20 09:24:54;;;;;;;12.40;8.80;;;9.30;78.30;9.70;97098.00;;;;5054345;28;20235;-83
2021/12/20 09:27:22;;;;;;;14.97;8.23;;;9.30;78.40;9.70;97100.00;;;;5046177;28;20221;-83
2021/12/20 09:29:49;;;;;;;16.03;8.47;;;9.40;78.20;9.70;97104.00;;;;5047815;28;20280;-82
2021/12/20 09:32:17;;;;;;;13.70;8.00;;;9.40;78.20;9.70;97109.00;;;;5055393;28;20201;-82
2021/12/20 09:34:44;;;;;;;23.60;8.57;;;9.30;78.00;9.70;97106.00;;;;5056371;28;20203;-86
2021/12/20 09:37:11;;;;;;;11.97;8.50;;;9.30;78.00;9.70;97102.00;;;;5063967;28;20299;-82
2021/12/20 09:39:39;;;;;;;12.80;7.60;;;9.40;78.00;9.80;97098.00;;;;5057120;28;20236;-83
2021/12/20 09:42:12;;;;;;;11.50;7.23;;;9.40;78.10;9.80;97100.00;;;;5058773;28;20243;-83
2021/12/20 09:44:44;;;;;;;10.70;7.27;;;9.40;78.30;9.80;97107.00;;;;5054138;28;20217;-82
2021/12/20 09:47:11;;;;;;;10.13;6.87;;;9.40;78.30;9.90;97102.00;;;;5050121;28;20221;-82
2021/12/20 09:49:38;;;;;;;12.70;8.17;;;9.40;78.10;9.90;97101.00;;;;5053815;28;20199;-83
2021/12/20 09:52:06;;;;;;;11.20;7.37;;;9.50;78.00;9.90;97104.00;;;;5052152;28;20667;-83
2021/12/20 09:54:33;;;;;;;11.93;7.10;;;9.50;78.00;9.90;97101.00;;;;5050654;28;20204;-82
2021/12/20 09:57:06;;;;;;;8.57;6.37;;;9.50;78.10;10.00;97095.00;;;;5049417;28;20595;-82
2021/12/20 09:59:38;;;;;;;8.00;6.10;;;9.60;77.90;10.00;97096.00;;;;5059162;28;20257;-83
2021/12/20 10:02:10;;;;;;;8.57;5.27;;;9.60;77.40;9.90;97104.00;;;;5064275;28;20246;-83
2021/12/20 10:04:37;;;;;;;8.13;4.93;;;9.70;76.90;9.90;97098.00;;;;5044681;28;20221;-83
2021/12/20 10:07:05;;;;;;;6.80;4.90;;;9.70;76.60;9.90;97093.00;;;;5054165;28;20216;-83
2021/12/20 10:09:34;;;;;;;6.73;5.03;;;9.70;76.70;9.90;97099.00;;;;5069295;28;20220;-82
2021/12/20 10:12:16;;;;;;;8.23;5.43;;;9.70;77.30;9.90;97106.00;;;;5061652;28;20228;-82
2021/12/20 10:15:05;;;;;;;6.90;4.73;;;9.80;76.90;9.90;97104.00;;;;5050441;28;20212;-85
2021/12/20 10:17:51;;;;;;;7.57;5.00;;;9.90;76.90;9.90;97101.00;;;;5049619;28;20279;-83
2021/12/20 10:20:22;;;;;;;6.60;4.53;;;9.90;77.20;9.90;97101.00;;;;5051840;28;20185;-82
2021/12/20 10:22:50;;;;;;;5.93;4.87;;;9.90;76.70;10.00;97095.00;;;;5048596;28;20252;-84
2021/12/20 10:25:27;;;;;;;7.83;4.63;;;9.90;77.10;10.10;97093.00;;;;5060336;28;20898;-82
2021/12/20 10:28:07;;;;;;;8.93;4.63;;;10.00;77.30;10.20;97095.00;;;;5060853;28;20224;-82
2021/12/20 10:30:37;;;;;;;7.00;4.30;;;10.10;78.10;10.40;97111.00;;;;5051841;28;20667;-82
2021/12/20 10:33:08;;;;;;;6.60;4.20;;;10.20;77.80;10.60;97115.00;;;;5053520;28;20208;-82
2021/12/20 10:35:40;;;;;;;7.03;3.20;;;10.40;77.90;10.70;97110.00;;;;5041013;28;20182;-82
2021/12/20 10:38:25;;;;;;;3.87;3.20;;;10.50;76.90;10.80;97108.00;;;;5042341;28;20217;-82
2021/12/20 10:40:56;;;;;;;3.90;2.90;;;10.60;75.60;10.80;97100.00;;;;5056524;28;20196;-82
2021/12/20 10:43:32;;;;;;;8.67;3.73;;;10.70;74.80;10.80;97108.00;;;;5046981;28;20262;-82
2021/12/20 10:45:59;;;;;;;5.80;3.30;;;10.70;74.10;10.80;97105.00;;;;5061431;28;20201;-82
2021/12/20 10:48:34;;;;;;;6.70;3.27;;;10.70;74.20;10.90;97102.00;;;;5049794;28;20213;-82
2021/12/20 10:51:04;;;;;;;5.83;3.43;;;10.70;73.50;10.90;97100.00;;;;5055292;28;20681;-80
2021/12/20 10:53:31;;;;;;;6.33;3.50;;;10.70;73.50;10.90;97098.00;;;;5036821;28;20551;-80
2021/12/20 10:56:02;;;;;;;6.47;3.50;;;10.70;72.80;10.90;97087.00;;;;5048602;28;20716;-82
2021/12/20 10:58:34;;;;;;;4.67;3.90;;;10.70;72.90;10.80;97091.00;;;;5042804;28;20209;-80
2021/12/20 11:01:46;;;;;;;6.17;4.23;;;10.70;72.70;10.70;97083.00;;;;5055060;28;20197;-80
2021/12/20 11:04:19;;;;;;;9.37;4.87;;;10.60;71.70;10.60;97093.00;;;;5050396;28;20200;-80
2021/12/20 11:09:37;;;;;;;6.87;4.67;;;10.50;72.30;10.40;97085.00;;;;5045219;28;20192;-80
2021/12/20 11:12:08;;;;;;;7.37;4.60;;;10.40;71.80;10.40;97087.00;;;;5049558;28;20262;-81
2021/12/20 11:14:40;;;;;;;6.47;4.43;;;10.30;71.40;10.30;97079.00;;;;5045190;28;20200;-80
2021/12/20 11:17:10;;;;;;;7.27;4.27;;;10.20;71.50;10.20;97077.00;;;;5042379;28;20224;-80
2021/12/20 11:19:39;;;;;;;10.10;4.73;;;10.10;71.80;10.10;97081.00;;;;5050232;28;20188;-81
2021/12/20 11:22:09;;;;;;;5.87;3.53;;;10.00;72.00;10.10;97084.00;;;;5057233;28;20252;-81
2021/12/20 11:24:44;;;;;;;5.33;3.90;;;10.00;71.80;10.00;97087.00;;;;5057887;28;20193;-83